sensor_id;sensor_type;location;lat;lon;timestamp;P1;durP1;ratioP1;P2;durP2;ratioP2
3133;SDS011;1577;49.912;10.924;2024-03-06T00:01:49;39.53;;;21.13;;
3133;SDS011;1577;49.912;10.924;2024-03-06T00:04:14;41.03;;;22.27;;
3133;SDS011;1577;49.912;10.924;2024-03-06T00:06:40;33.80;;;21.80;;
3133;SDS011;1577;49.912;10.924;2024-03-06T00:09:05;38.83;;;21.17;;
3133;SDS011;1577;49.912;10.924;2024-03-06T00:11:33;33.90;;;20.07;;
3133;SDS011;1577;49.912;10.924;2024-03-06T00:14:00;36.67;;;20.10;;
3133;SDS011;1577;49.912;10.924;2024-03-06T00:16:32;34.10;;;19.10;;
3133;SDS011;1577;49.912;10.924;2024-03-06T00:18:58;31.13;;;19.43;;
3133;SDS011;1577;49.912;10.924;2024-03-06T00:21:23;39.07;;;20.20;;
3133;SDS011;1577;49.912;10.924;2024-03-06T00:23:49;34.83;;;20.87;;
3133;SDS011;1577;49.912;10.924;2024-03-06T00:26:14;32.93;;;19.13;;
3133;SDS011;1577;49.912;10.924;2024-03-06T00:28:40;33.47;;;18.97;;
3133;SDS011;1577;49.912;10.924;2024-03-06T00:31:06;33.67;;;19.93;;
3133;SDS011;1577;49.912;10.924;2024-03-06T00:33:32;34.80;;;19.83;;
3133;SDS011;1577;49.912;10.924;2024-03-06T00:35:57;35.43;;;21.93;;
3133;SDS011;1577;49.912;10.924;2024-03-06T00:38:23;46.10;;;23.50;;
3133;SDS011;1577;49.912;10.924;2024-03-06T00:40:48;34.90;;;21.30;;
3133;SDS011;1577;49.912;10.924;2024-03-06T00:43:14;32.70;;;20.87;;
3133;SDS011;1577;49.912;10.924;2024-03-06T00:45:40;35.00;;;20.90;;
3133;SDS011;1577;49.912;10.924;2024-03-06T00:48:05;35.90;;;20.97;;
3133;SDS011;1577;49.912;10.924;2024-03-06T00:50:31;35.53;;;21.43;;
3133;SDS011;1577;49.912;10.924;2024-03-06T00:52:57;40.80;;;22.33;;
3133;SDS011;1577;49.912;10.924;2024-03-06T00:55:23;46.70;;;25.60;;
3133;SDS011;1577;49.912;10.924;2024-03-06T00:57:49;37.23;;;22.30;;
3133;SDS011;1577;49.912;10.924;2024-03-06T01:00:14;40.47;;;23.40;;
3133;SDS011;1577;49.912;10.924;2024-03-06T01:02:41;34.03;;;20.50;;
3133;SDS011;1577;49.912;10.924;2024-03-06T01:05:06;37.50;;;20.87;;
3133;SDS011;1577;49.912;10.924;2024-03-06T01:07:33;36.27;;;19.60;;
3133;SDS011;1577;49.912;10.924;2024-03-06T01:09:59;35.10;;;21.20;;
3133;SDS011;1577;49.912;10.924;2024-03-06T01:12:26;39.50;;;22.10;;
3133;SDS011;1577;49.912;10.924;2024-03-06T01:14:52;34.70;;;20.57;;
3133;SDS011;1577;49.912;10.924;2024-03-06T01:17:17;36.20;;;21.50;;
3133;SDS011;1577;49.912;10.924;2024-03-06T01:19:43;35.80;;;20.97;;
3133;SDS011;1577;49.912;10.924;2024-03-06T01:22:09;37.90;;;21.47;;
3133;SDS011;1577;49.912;10.924;2024-03-06T01:24:35;40.90;;;24.27;;
3133;SDS011;1577;49.912;10.924;2024-03-06T01:27:01;35.07;;;21.40;;
3133;SDS011;1577;49.912;10.924;2024-03-06T01:29:30;38.63;;;22.00;;
3133;SDS011;1577;49.912;10.924;2024-03-06T01:31:57;36.13;;;21.43;;
3133;SDS011;1577;49.912;10.924;2024-03-06T01:34:26;35.03;;;21.00;;
3133;SDS011;1577;49.912;10.924;2024-03-06T01:36:52;30.33;;;21.00;;
3133;SDS011;1577;49.912;10.924;2024-03-06T01:39:17;35.77;;;21.77;;
3133;SDS011;1577;49.912;10.924;2024-03-06T01:41:44;39.90;;;21.23;;
3133;SDS011;1577;49.912;10.924;2024-03-06T01:44:14;35.07;;;20.47;;
3133;SDS011;1577;49.912;10.924;2024-03-06T01:46:40;38.07;;;21.90;;
3133;SDS011;1577;49.912;10.924;2024-03-06T01:49:06;35.77;;;20.03;;
3133;SDS011;1577;49.912;10.924;2024-03-06T01:51:33;37.20;;;20.43;;
3133;SDS011;1577;49.912;10.924;2024-03-06T01:53:58;36.70;;;21.20;;
3133;SDS011;1577;49.912;10.924;2024-03-06T01:56:26;36.33;;;20.63;;
3133;SDS011;1577;49.912;10.924;2024-03-06T01:58:53;35.83;;;20.97;;
3133;SDS011;1577;49.912;10.924;2024-03-06T02:01:19;32.37;;;20.27;;
3133;SDS011;1577;49.912;10.924;2024-03-06T02:03:46;35.43;;;20.60;;
3133;SDS011;1577;49.912;10.924;2024-03-06T02:06:12;33.53;;;19.97;;
3133;SDS011;1577;49.912;10.924;2024-03-06T02:08:40;33.57;;;20.10;;
3133;SDS011;1577;49.912;10.924;2024-03-06T02:11:06;40.07;;;21.53;;
3133;SDS011;1577;49.912;10.924;2024-03-06T02:13:32;35.10;;;20.23;;
3133;SDS011;1577;49.912;10.924;2024-03-06T02:15:58;35.67;;;19.83;;
3133;SDS011;1577;49.912;10.924;2024-03-06T02:18:24;36.13;;;21.73;;
3133;SDS011;1577;49.912;10.924;2024-03-06T02:20:49;32.90;;;19.07;;
3133;SDS011;1577;49.912;10.924;2024-03-06T02:23:15;34.57;;;19.63;;
3133;SDS011;1577;49.912;10.924;2024-03-06T02:25:43;36.47;;;22.70;;
3133;SDS011;1577;49.912;10.924;2024-03-06T02:28:11;37.67;;;20.40;;
3133;SDS011;1577;49.912;10.924;2024-03-06T02:30:36;34.70;;;19.80;;
3133;SDS011;1577;49.912;10.924;2024-03-06T02:33:02;30.23;;;18.13;;
3133;SDS011;1577;49.912;10.924;2024-03-06T02:35:31;31.83;;;18.33;;
3133;SDS011;1577;49.912;10.924;2024-03-06T02:38:00;34.00;;;18.00;;
3133;SDS011;1577;49.912;10.924;2024-03-06T02:40:28;30.07;;;17.63;;
3133;SDS011;1577;49.912;10.924;2024-03-06T02:42:53;32.10;;;17.47;;
3133;SDS011;1577;49.912;10.924;2024-03-06T02:45:19;30.63;;;17.70;;
3133;SDS011;1577;49.912;10.924;2024-03-06T02:47:45;28.33;;;16.30;;
3133;SDS011;1577;49.912;10.924;2024-03-06T02:50:11;29.47;;;17.87;;
3133;SDS011;1577;49.912;10.924;2024-03-06T02:52:36;30.00;;;17.27;;
3133;SDS011;1577;49.912;10.924;2024-03-06T02:55:02;29.80;;;17.40;;
3133;SDS011;1577;49.912;10.924;2024-03-06T02:57:28;30.80;;;17.30;;
3133;SDS011;1577;49.912;10.924;2024-03-06T02:59:54;31.97;;;18.40;;
3133;SDS011;1577;49.912;10.924;2024-03-06T03:02:21;37.00;;;19.40;;
3133;SDS011;1577;49.912;10.924;2024-03-06T03:04:46;32.80;;;18.57;;
3133;SDS011;1577;49.912;10.924;2024-03-06T03:07:12;35.07;;;18.90;;
3133;SDS011;1577;49.912;10.924;2024-03-06T03:09:38;31.60;;;17.33;;
3133;SDS011;1577;49.912;10.924;2024-03-06T03:12:03;32.97;;;17.93;;
3133;SDS011;1577;49.912;10.924;2024-03-06T03:14:29;31.67;;;17.90;;
3133;SDS011;1577;49.912;10.924;2024-03-06T03:16:55;34.70;;;19.47;;
3133;SDS011;1577;49.912;10.924;2024-03-06T03:19:21;32.23;;;17.00;;
3133;SDS011;1577;49.912;10.924;2024-03-06T03:21:46;30.93;;;16.33;;
3133;SDS011;1577;49.912;10.924;2024-03-06T03:24:12;27.80;;;16.90;;
3133;SDS011;1577;49.912;10.924;2024-03-06T03:26:38;31.30;;;17.23;;
3133;SDS011;1577;49.912;10.924;2024-03-06T03:29:03;33.20;;;18.17;;
3133;SDS011;1577;49.912;10.924;2024-03-06T03:31:30;26.20;;;15.40;;
3133;SDS011;1577;49.912;10.924;2024-03-06T03:33:56;31.23;;;18.00;;
3133;SDS011;1577;49.912;10.924;2024-03-06T03:36:22;30.20;;;16.50;;
3133;SDS011;1577;49.912;10.924;2024-03-06T03:38:47;28.10;;;16.70;;
3133;SDS011;1577;49.912;10.924;2024-03-06T03:41:13;31.10;;;17.63;;
3133;SDS011;1577;49.912;10.924;2024-03-06T03:43:39;27.87;;;16.47;;
3133;SDS011;1577;49.912;10.924;2024-03-06T03:46:05;33.70;;;18.00;;
3133;SDS011;1577;49.912;10.924;2024-03-06T03:48:31;28.60;;;15.73;;
3133;SDS011;1577;49.912;10.924;2024-03-06T03:51:00;29.47;;;16.80;;
3133;SDS011;1577;49.912;10.924;2024-03-06T03:53:28;30.07;;;16.50;;
3133;SDS011;1577;49.912;10.924;2024-03-06T03:55:53;28.73;;;16.97;;
3133;SDS011;1577;49.912;10.924;2024-03-06T03:58:19;31.47;;;16.60;;
3133;SDS011;1577;49.912;10.924;2024-03-06T04:00:45;27.30;;;16.30;;
3133;SDS011;1577;49.912;10.924;2024-03-06T04:03:10;28.53;;;16.40;;
3133;SDS011;1577;49.912;10.924;2024-03-06T04:05:36;26.80;;;16.23;;
3133;SDS011;1577;49.912;10.924;2024-03-06T04:08:01;31.23;;;15.73;;
3133;SDS011;1577;49.912;10.924;2024-03-06T04:10:27;31.60;;;17.20;;
3133;SDS011;1577;49.912;10.924;2024-03-06T04:12:53;28.77;;;16.63;;
3133;SDS011;1577;49.912;10.924;2024-03-06T04:15:19;29.23;;;16.10;;
3133;SDS011;1577;49.912;10.924;2024-03-06T04:17:45;28.00;;;15.07;;
3133;SDS011;1577;49.912;10.924;2024-03-06T04:20:10;31.57;;;15.23;;
3133;SDS011;1577;49.912;10.924;2024-03-06T04:22:37;25.90;;;14.60;;
3133;SDS011;1577;49.912;10.924;2024-03-06T04:25:03;29.27;;;15.13;;
3133;SDS011;1577;49.912;10.924;2024-03-06T04:27:30;29.23;;;14.50;;
3133;SDS011;1577;49.912;10.924;2024-03-06T04:29:55;33.30;;;16.30;;
3133;SDS011;1577;49.912;10.924;2024-03-06T04:32:21;32.83;;;15.97;;
3133;SDS011;1577;49.912;10.924;2024-03-06T04:34:46;31.17;;;16.33;;
3133;SDS011;1577;49.912;10.924;2024-03-06T04:37:12;26.60;;;15.70;;
3133;SDS011;1577;49.912;10.924;2024-03-06T04:39:38;33.27;;;15.87;;
3133;SDS011;1577;49.912;10.924;2024-03-06T04:42:04;35.97;;;16.60;;
3133;SDS011;1577;49.912;10.924;2024-03-06T04:44:33;28.77;;;15.57;;
3133;SDS011;1577;49.912;10.924;2024-03-06T04:46:59;33.37;;;16.13;;
3133;SDS011;1577;49.912;10.924;2024-03-06T04:49:24;29.97;;;16.20;;
3133;SDS011;1577;49.912;10.924;2024-03-06T04:51:50;33.80;;;19.20;;
3133;SDS011;1577;49.912;10.924;2024-03-06T04:54:15;33.70;;;19.53;;
3133;SDS011;1577;49.912;10.924;2024-03-06T04:56:41;31.60;;;17.00;;
3133;SDS011;1577;49.912;10.924;2024-03-06T04:59:06;28.33;;;15.80;;
3133;SDS011;1577;49.912;10.924;2024-03-06T05:01:32;30.47;;;17.13;;
3133;SDS011;1577;49.912;10.924;2024-03-06T05:03:58;30.20;;;16.90;;
3133;SDS011;1577;49.912;10.924;2024-03-06T05:06:23;31.70;;;16.10;;
3133;SDS011;1577;49.912;10.924;2024-03-06T05:08:49;29.70;;;16.20;;
3133;SDS011;1577;49.912;10.924;2024-03-06T05:11:14;33.90;;;15.40;;
3133;SDS011;1577;49.912;10.924;2024-03-06T05:13:40;30.07;;;16.23;;
3133;SDS011;1577;49.912;10.924;2024-03-06T05:16:06;27.10;;;15.10;;
3133;SDS011;1577;49.912;10.924;2024-03-06T05:18:34;34.70;;;16.57;;
3133;SDS011;1577;49.912;10.924;2024-03-06T05:21:00;27.43;;;15.00;;
3133;SDS011;1577;49.912;10.924;2024-03-06T05:23:25;29.03;;;16.23;;
3133;SDS011;1577;49.912;10.924;2024-03-06T05:25:52;30.17;;;15.83;;
3133;SDS011;1577;49.912;10.924;2024-03-06T05:28:17;32.87;;;16.60;;
3133;SDS011;1577;49.912;10.924;2024-03-06T05:30:43;34.60;;;16.03;;
3133;SDS011;1577;49.912;10.924;2024-03-06T05:33:08;29.60;;;15.27;;
3133;SDS011;1577;49.912;10.924;2024-03-06T05:35:34;27.93;;;15.40;;
3133;SDS011;1577;49.912;10.924;2024-03-06T05:37:59;29.60;;;16.10;;
3133;SDS011;1577;49.912;10.924;2024-03-06T05:40:25;31.63;;;15.70;;
3133;SDS011;1577;49.912;10.924;2024-03-06T05:42:51;31.87;;;16.90;;
3133;SDS011;1577;49.912;10.924;2024-03-06T05:45:16;33.70;;;17.00;;
3133;SDS011;1577;49.912;10.924;2024-03-06T05:47:42;31.40;;;16.67;;
3133;SDS011;1577;49.912;10.924;2024-03-06T05:50:08;31.93;;;16.63;;
3133;SDS011;1577;49.912;10.924;2024-03-06T05:52:35;38.60;;;17.73;;
3133;SDS011;1577;49.912;10.924;2024-03-06T05:55:02;35.33;;;18.50;;
3133;SDS011;1577;49.912;10.924;2024-03-06T05:57:28;36.53;;;16.87;;
3133;SDS011;1577;49.912;10.924;2024-03-06T05:59:53;31.27;;;16.80;;
3133;SDS011;1577;49.912;10.924;2024-03-06T06:02:19;33.23;;;17.50;;
3133;SDS011;1577;49.912;10.924;2024-03-06T06:04:45;29.60;;;15.23;;
3133;SDS011;1577;49.912;10.924;2024-03-06T06:07:11;30.50;;;16.20;;
3133;SDS011;1577;49.912;10.924;2024-03-06T06:09:36;29.40;;;15.80;;
3133;SDS011;1577;49.912;10.924;2024-03-06T06:12:02;30.83;;;15.77;;
3133;SDS011;1577;49.912;10.924;2024-03-06T06:14:28;28.33;;;15.20;;
3133;SDS011;1577;49.912;10.924;2024-03-06T06:16:54;31.20;;;17.03;;
3133;SDS011;1577;49.912;10.924;2024-03-06T06:19:21;32.90;;;17.33;;
3133;SDS011;1577;49.912;10.924;2024-03-06T06:21:46;34.10;;;15.73;;
3133;SDS011;1577;49.912;10.924;2024-03-06T06:24:12;28.93;;;16.33;;
3133;SDS011;1577;49.912;10.924;2024-03-06T06:26:38;30.17;;;15.77;;
3133;SDS011;1577;49.912;10.924;2024-03-06T06:29:04;29.83;;;15.80;;
3133;SDS011;1577;49.912;10.924;2024-03-06T06:31:29;31.07;;;16.60;;
3133;SDS011;1577;49.912;10.924;2024-03-06T06:33:55;33.53;;;15.10;;
3133;SDS011;1577;49.912;10.924;2024-03-06T06:36:21;27.50;;;15.43;;
3133;SDS011;1577;49.912;10.924;2024-03-06T06:38:47;28.43;;;16.13;;
3133;SDS011;1577;49.912;10.924;2024-03-06T06:41:13;29.40;;;15.47;;
3133;SDS011;1577;49.912;10.924;2024-03-06T06:43:39;26.37;;;15.50;;
3133;SDS011;1577;49.912;10.924;2024-03-06T06:46:06;30.97;;;15.93;;
3133;SDS011;1577;49.912;10.924;2024-03-06T06:48:32;28.50;;;15.53;;
3133;SDS011;1577;49.912;10.924;2024-03-06T06:50:59;25.30;;;14.70;;
3133;SDS011;1577;49.912;10.924;2024-03-06T06:53:26;30.90;;;15.40;;
3133;SDS011;1577;49.912;10.924;2024-03-06T06:55:51;31.10;;;16.50;;
3133;SDS011;1577;49.912;10.924;2024-03-06T06:58:17;28.87;;;16.03;;
3133;SDS011;1577;49.912;10.924;2024-03-06T07:00:43;33.80;;;16.43;;
3133;SDS011;1577;49.912;10.924;2024-03-06T07:03:08;31.50;;;16.40;;
3133;SDS011;1577;49.912;10.924;2024-03-06T07:05:34;27.80;;;16.03;;
3133;SDS011;1577;49.912;10.924;2024-03-06T07:07:59;28.30;;;15.73;;
3133;SDS011;1577;49.912;10.924;2024-03-06T07:10:25;28.83;;;15.37;;
3133;SDS011;1577;49.912;10.924;2024-03-06T07:12:53;28.00;;;14.50;;
3133;SDS011;1577;49.912;10.924;2024-03-06T07:15:22;26.90;;;14.37;;
3133;SDS011;1577;49.912;10.924;2024-03-06T07:17:48;27.40;;;15.70;;
3133;SDS011;1577;49.912;10.924;2024-03-06T07:20:14;30.23;;;17.83;;
3133;SDS011;1577;49.912;10.924;2024-03-06T07:22:40;31.80;;;16.43;;
3133;SDS011;1577;49.912;10.924;2024-03-06T07:25:07;30.30;;;15.83;;
3133;SDS011;1577;49.912;10.924;2024-03-06T07:27:34;25.73;;;15.50;;
3133;SDS011;1577;49.912;10.924;2024-03-06T07:30:00;30.90;;;16.00;;
3133;SDS011;1577;49.912;10.924;2024-03-06T07:32:27;25.93;;;15.90;;
3133;SDS011;1577;49.912;10.924;2024-03-06T07:34:56;24.80;;;14.87;;
3133;SDS011;1577;49.912;10.924;2024-03-06T07:37:23;28.80;;;14.07;;
3133;SDS011;1577;49.912;10.924;2024-03-06T07:39:49;24.77;;;14.40;;
3133;SDS011;1577;49.912;10.924;2024-03-06T07:42:14;24.83;;;14.33;;
3133;SDS011;1577;49.912;10.924;2024-03-06T07:44:40;22.03;;;13.03;;
3133;SDS011;1577;49.912;10.924;2024-03-06T07:47:06;21.97;;;13.40;;
3133;SDS011;1577;49.912;10.924;2024-03-06T07:49:33;26.63;;;14.17;;
3133;SDS011;1577;49.912;10.924;2024-03-06T07:52:00;20.40;;;12.07;;
3133;SDS011;1577;49.912;10.924;2024-03-06T07:54:26;20.40;;;12.00;;
3133;SDS011;1577;49.912;10.924;2024-03-06T07:56:53;20.57;;;11.73;;
3133;SDS011;1577;49.912;10.924;2024-03-06T07:59:19;18.10;;;10.77;;
3133;SDS011;1577;49.912;10.924;2024-03-06T08:01:45;18.87;;;10.70;;
3133;SDS011;1577;49.912;10.924;2024-03-06T08:04:11;23.33;;;10.70;;
3133;SDS011;1577;49.912;10.924;2024-03-06T08:06:36;19.70;;;12.40;;
3133;SDS011;1577;49.912;10.924;2024-03-06T08:09:02;20.87;;;11.50;;
3133;SDS011;1577;49.912;10.924;2024-03-06T08:11:28;19.80;;;11.87;;
3133;SDS011;1577;49.912;10.924;2024-03-06T08:13:57;18.30;;;10.63;;
3133;SDS011;1577;49.912;10.924;2024-03-06T08:16:24;24.53;;;11.90;;
3133;SDS011;1577;49.912;10.924;2024-03-06T08:18:50;22.23;;;12.03;;
3133;SDS011;1577;49.912;10.924;2024-03-06T08:21:15;24.20;;;12.70;;
3133;SDS011;1577;49.912;10.924;2024-03-06T08:23:41;23.37;;;13.80;;
3133;SDS011;1577;49.912;10.924;2024-03-06T08:26:08;21.03;;;12.20;;
3133;SDS011;1577;49.912;10.924;2024-03-06T08:28:34;24.00;;;12.70;;
3133;SDS011;1577;49.912;10.924;2024-03-06T08:31:00;29.40;;;13.00;;
3133;SDS011;1577;49.912;10.924;2024-03-06T08:33:27;21.40;;;12.70;;
3133;SDS011;1577;49.912;10.924;2024-03-06T08:35:52;24.50;;;12.60;;
3133;SDS011;1577;49.912;10.924;2024-03-06T08:38:18;22.20;;;12.27;;
3133;SDS011;1577;49.912;10.924;2024-03-06T08:40:45;21.10;;;13.07;;
3133;SDS011;1577;49.912;10.924;2024-03-06T08:43:12;21.93;;;12.80;;
3133;SDS011;1577;49.912;10.924;2024-03-06T08:45:41;23.30;;;12.53;;
3133;SDS011;1577;49.912;10.924;2024-03-06T08:48:07;22.53;;;11.93;;
3133;SDS011;1577;49.912;10.924;2024-03-06T08:50:34;24.90;;;13.10;;
3133;SDS011;1577;49.912;10.924;2024-03-06T08:53:01;23.30;;;12.73;;
3133;SDS011;1577;49.912;10.924;2024-03-06T08:55:29;23.90;;;13.17;;
3133;SDS011;1577;49.912;10.924;2024-03-06T08:57:55;25.10;;;12.20;;
3133;SDS011;1577;49.912;10.924;2024-03-06T09:00:20;25.00;;;13.13;;
3133;SDS011;1577;49.912;10.924;2024-03-06T09:02:46;21.87;;;12.40;;
3133;SDS011;1577;49.912;10.924;2024-03-06T09:05:12;25.50;;;15.30;;
3133;SDS011;1577;49.912;10.924;2024-03-06T09:07:41;23.80;;;12.97;;
3133;SDS011;1577;49.912;10.924;2024-03-06T09:10:07;21.50;;;12.37;;
3133;SDS011;1577;49.912;10.924;2024-03-06T09:12:34;20.50;;;11.60;;
3133;SDS011;1577;49.912;10.924;2024-03-06T09:15:01;20.93;;;11.20;;
3133;SDS011;1577;49.912;10.924;2024-03-06T09:17:27;19.67;;;10.40;;
3133;SDS011;1577;49.912;10.924;2024-03-06T09:19:53;19.30;;;11.23;;
3133;SDS011;1577;49.912;10.924;2024-03-06T09:22:19;20.63;;;11.20;;
3133;SDS011;1577;49.912;10.924;2024-03-06T09:24:45;19.57;;;11.67;;
3133;SDS011;1577;49.912;10.924;2024-03-06T09:27:11;23.63;;;12.70;;
3133;SDS011;1577;49.912;10.924;2024-03-06T09:29:37;19.23;;;11.17;;
3133;SDS011;1577;49.912;10.924;2024-03-06T09:32:02;19.33;;;11.10;;
3133;SDS011;1577;49.912;10.924;2024-03-06T09:34:28;18.57;;;11.63;;
3133;SDS011;1577;49.912;10.924;2024-03-06T09:36:54;20.33;;;11.97;;
3133;SDS011;1577;49.912;10.924;2024-03-06T09:39:19;18.87;;;11.10;;
3133;SDS011;1577;49.912;10.924;2024-03-06T09:41:52;19.30;;;11.63;;
3133;SDS011;1577;49.912;10.924;2024-03-06T09:44:18;20.27;;;11.63;;
3133;SDS011;1577;49.912;10.924;2024-03-06T09:46:46;20.93;;;11.73;;
3133;SDS011;1577;49.912;10.924;2024-03-06T09:49:13;20.07;;;10.57;;
3133;SDS011;1577;49.912;10.924;2024-03-06T09:51:42;17.17;;;10.10;;
3133;SDS011;1577;49.912;10.924;2024-03-06T09:54:10;16.33;;;9.60;;
3133;SDS011;1577;49.912;10.924;2024-03-06T09:56:46;18.80;;;10.83;;
3133;SDS011;1577;49.912;10.924;2024-03-06T09:59:13;19.30;;;11.60;;
3133;SDS011;1577;49.912;10.924;2024-03-06T10:01:40;21.83;;;11.67;;
3133;SDS011;1577;49.912;10.924;2024-03-06T10:04:21;18.73;;;10.80;;
3133;SDS011;1577;49.912;10.924;2024-03-06T10:06:52;21.30;;;12.17;;
3133;SDS011;1577;49.912;10.924;2024-03-06T10:09:20;22.47;;;11.30;;
3133;SDS011;1577;49.912;10.924;2024-03-06T10:11:46;20.10;;;11.80;;
3133;SDS011;1577;49.912;10.924;2024-03-06T10:14:12;20.30;;;11.40;;
3133;SDS011;1577;49.912;10.924;2024-03-06T10:16:51;20.37;;;12.00;;
3133;SDS011;1577;49.912;10.924;2024-03-06T10:19:20;20.60;;;11.60;;
3133;SDS011;1577;49.912;10.924;2024-03-06T10:21:47;19.30;;;10.63;;
3133;SDS011;1577;49.912;10.924;2024-03-06T10:24:17;20.07;;;12.17;;
3133;SDS011;1577;49.912;10.924;2024-03-06T10:26:48;22.00;;;11.70;;
3133;SDS011;1577;49.912;10.924;2024-03-06T10:29:17;19.87;;;11.67;;
3133;SDS011;1577;49.912;10.924;2024-03-06T10:31:53;17.77;;;10.23;;
3133;SDS011;1577;49.912;10.924;2024-03-06T10:34:20;16.00;;;9.13;;
3133;SDS011;1577;49.912;10.924;2024-03-06T10:36:53;16.60;;;9.90;;
3133;SDS011;1577;49.912;10.924;2024-03-06T10:39:20;18.03;;;9.70;;
3133;SDS011;1577;49.912;10.924;2024-03-06T10:41:53;18.30;;;10.83;;
3133;SDS011;1577;49.912;10.924;2024-03-06T10:44:24;18.23;;;9.97;;
3133;SDS011;1577;49.912;10.924;2024-03-06T10:46:55;18.57;;;9.80;;
3133;SDS011;1577;49.912;10.924;2024-03-06T10:49:27;15.80;;;9.65;;
3133;SDS011;1577;49.912;10.924;2024-03-06T10:52:01;16.13;;;9.83;;
3133;SDS011;1577;49.912;10.924;2024-03-06T10:54:31;16.90;;;10.37;;
3133;SDS011;1577;49.912;10.924;2024-03-06T10:56:59;17.10;;;9.40;;
3133;SDS011;1577;49.912;10.924;2024-03-06T10:59:26;15.57;;;9.27;;
3133;SDS011;1577;49.912;10.924;2024-03-06T11:01:53;16.13;;;9.10;;
3133;SDS011;1577;49.912;10.924;2024-03-06T11:04:20;13.70;;;8.03;;
3133;SDS011;1577;49.912;10.924;2024-03-06T11:06:48;17.20;;;10.03;;
3133;SDS011;1577;49.912;10.924;2024-03-06T11:09:14;16.33;;;8.43;;
3133;SDS011;1577;49.912;10.924;2024-03-06T11:11:50;14.43;;;8.50;;
3133;SDS011;1577;49.912;10.924;2024-03-06T11:14:17;13.00;;;8.30;;
3133;SDS011;1577;49.912;10.924;2024-03-06T11:19:26;13.90;;;8.17;;
3133;SDS011;1577;49.912;10.924;2024-03-06T11:21:52;13.37;;;9.03;;
3133;SDS011;1577;49.912;10.924;2024-03-06T11:24:18;13.87;;;8.23;;
3133;SDS011;1577;49.912;10.924;2024-03-06T11:26:59;13.00;;;7.63;;
3133;SDS011;1577;49.912;10.924;2024-03-06T11:30:02;10.97;;;6.90;;
3133;SDS011;1577;49.912;10.924;2024-03-06T11:32:29;11.53;;;7.37;;
3133;SDS011;1577;49.912;10.924;2024-03-06T11:34:55;13.23;;;7.60;;
3133;SDS011;1577;49.912;10.924;2024-03-06T11:37:20;15.83;;;8.83;;
3133;SDS011;1577;49.912;10.924;2024-03-06T11:39:48;11.57;;;7.13;;
3133;SDS011;1577;49.912;10.924;2024-03-06T11:42:13;14.17;;;8.03;;
3133;SDS011;1577;49.912;10.924;2024-03-06T11:44:52;12.27;;;8.40;;
3133;SDS011;1577;49.912;10.924;2024-03-06T11:47:20;13.97;;;8.67;;
3133;SDS011;1577;49.912;10.924;2024-03-06T11:49:46;13.13;;;9.13;;
3133;SDS011;1577;49.912;10.924;2024-03-06T11:52:12;17.47;;;9.30;;
3133;SDS011;1577;49.912;10.924;2024-03-06T11:54:37;17.97;;;10.00;;
3133;SDS011;1577;49.912;10.924;2024-03-06T11:57:04;17.93;;;9.43;;
3133;SDS011;1577;49.912;10.924;2024-03-06T11:59:34;14.87;;;9.63;;
3133;SDS011;1577;49.912;10.924;2024-03-06T12:02:01;16.20;;;9.40;;
3133;SDS011;1577;49.912;10.924;2024-03-06T12:04:33;13.47;;;9.00;;
3133;SDS011;1577;49.912;10.924;2024-03-06T12:07:01;16.13;;;9.40;;
3133;SDS011;1577;49.912;10.924;2024-03-06T12:09:34;13.60;;;8.30;;
3133;SDS011;1577;49.912;10.924;2024-03-06T12:12:01;15.10;;;9.30;;
3133;SDS011;1577;49.912;10.924;2024-03-06T12:14:28;11.60;;;7.13;;
3133;SDS011;1577;49.912;10.924;2024-03-06T12:17:00;11.57;;;7.90;;
3133;SDS011;1577;49.912;10.924;2024-03-06T12:19:31;14.73;;;8.67;;
3133;SDS011;1577;49.912;10.924;2024-03-06T12:22:04;17.90;;;9.03;;
3133;SDS011;1577;49.912;10.924;2024-03-06T12:24:29;14.50;;;9.33;;
3133;SDS011;1577;49.912;10.924;2024-03-06T12:27:06;13.00;;;8.70;;
3133;SDS011;1577;49.912;10.924;2024-03-06T12:29:34;16.60;;;9.00;;
3133;SDS011;1577;49.912;10.924;2024-03-06T12:32:01;14.57;;;9.00;;
3133;SDS011;1577;49.912;10.924;2024-03-06T12:34:27;13.53;;;8.30;;
3133;SDS011;1577;49.912;10.924;2024-03-06T12:36:55;19.77;;;12.77;;
3133;SDS011;1577;49.912;10.924;2024-03-06T12:39:21;20.30;;;12.97;;
3133;SDS011;1577;49.912;10.924;2024-03-06T12:41:51;18.97;;;12.30;;
3133;SDS011;1577;49.912;10.924;2024-03-06T12:44:17;21.20;;;13.20;;
3133;SDS011;1577;49.912;10.924;2024-03-06T12:46:44;26.03;;;13.40;;
3133;SDS011;1577;49.912;10.924;2024-03-06T12:49:10;18.10;;;12.17;;
3133;SDS011;1577;49.912;10.924;2024-03-06T12:51:36;20.47;;;12.50;;
3133;SDS011;1577;49.912;10.924;2024-03-06T12:54:02;17.97;;;11.83;;
3133;SDS011;1577;49.912;10.924;2024-03-06T12:56:28;18.20;;;10.70;;
3133;SDS011;1577;49.912;10.924;2024-03-06T12:58:54;16.60;;;10.40;;
3133;SDS011;1577;49.912;10.924;2024-03-06T13:01:20;14.30;;;9.97;;
3133;SDS011;1577;49.912;10.924;2024-03-06T13:03:46;21.07;;;12.47;;
3133;SDS011;1577;49.912;10.924;2024-03-06T13:06:12;21.67;;;13.53;;
3133;SDS011;1577;49.912;10.924;2024-03-06T13:08:38;19.67;;;12.80;;
3133;SDS011;1577;49.912;10.924;2024-03-06T13:11:04;17.47;;;11.63;;
3133;SDS011;1577;49.912;10.924;2024-03-06T13:13:29;21.10;;;12.60;;
3133;SDS011;1577;49.912;10.924;2024-03-06T13:15:58;18.83;;;11.13;;
3133;SDS011;1577;49.912;10.924;2024-03-06T13:18:24;18.67;;;11.50;;
3133;SDS011;1577;49.912;10.924;2024-03-06T13:20:50;17.97;;;11.20;;
3133;SDS011;1577;49.912;10.924;2024-03-06T13:23:16;22.90;;;13.30;;
3133;SDS011;1577;49.912;10.924;2024-03-06T13:25:42;19.67;;;11.73;;
3133;SDS011;1577;49.912;10.924;2024-03-06T13:28:09;19.40;;;10.83;;
3133;SDS011;1577;49.912;10.924;2024-03-06T13:30:34;20.40;;;11.57;;
3133;SDS011;1577;49.912;10.924;2024-03-06T13:33:00;18.20;;;11.27;;
3133;SDS011;1577;49.912;10.924;2024-03-06T13:35:26;20.07;;;12.40;;
3133;SDS011;1577;49.912;10.924;2024-03-06T13:37:51;18.60;;;11.60;;
3133;SDS011;1577;49.912;10.924;2024-03-06T13:40:18;21.80;;;12.20;;
3133;SDS011;1577;49.912;10.924;2024-03-06T13:42:44;22.77;;;13.50;;
3133;SDS011;1577;49.912;10.924;2024-03-06T13:45:11;20.30;;;12.20;;
3133;SDS011;1577;49.912;10.924;2024-03-06T13:47:40;18.90;;;12.20;;
3133;SDS011;1577;49.912;10.924;2024-03-06T13:50:08;20.03;;;11.00;;
3133;SDS011;1577;49.912;10.924;2024-03-06T13:52:38;18.00;;;11.57;;
3133;SDS011;1577;49.912;10.924;2024-03-06T13:55:04;21.03;;;11.70;;
3133;SDS011;1577;49.912;10.924;2024-03-06T13:57:33;19.30;;;12.00;;
3133;SDS011;1577;49.912;10.924;2024-03-06T14:00:04;16.97;;;11.27;;
3133;SDS011;1577;49.912;10.924;2024-03-06T14:02:46;21.00;;;12.33;;
3133;SDS011;1577;49.912;10.924;2024-03-06T14:05:12;18.70;;;11.00;;
3133;SDS011;1577;49.912;10.924;2024-03-06T14:07:39;20.57;;;11.10;;
3133;SDS011;1577;49.912;10.924;2024-03-06T14:10:06;16.73;;;9.80;;
3133;SDS011;1577;49.912;10.924;2024-03-06T14:12:33;19.20;;;11.47;;
3133;SDS011;1577;49.912;10.924;2024-03-06T14:15:00;17.97;;;10.30;;
3133;SDS011;1577;49.912;10.924;2024-03-06T14:17:26;16.80;;;10.00;;
3133;SDS011;1577;49.912;10.924;2024-03-06T14:19:51;20.43;;;11.33;;
3133;SDS011;1577;49.912;10.924;2024-03-06T14:22:17;19.80;;;11.50;;
3133;SDS011;1577;49.912;10.924;2024-03-06T14:24:42;18.13;;;11.17;;
3133;SDS011;1577;49.912;10.924;2024-03-06T14:27:08;22.90;;;12.90;;
3133;SDS011;1577;49.912;10.924;2024-03-06T14:29:34;18.50;;;10.60;;
3133;SDS011;1577;49.912;10.924;2024-03-06T14:32:00;20.10;;;9.97;;
3133;SDS011;1577;49.912;10.924;2024-03-06T14:34:25;19.07;;;11.17;;
3133;SDS011;1577;49.912;10.924;2024-03-06T14:36:51;17.70;;;10.80;;